WIII/CGK METAR and TAF weather

Enter ICAO airport designator
Station Type Date Time Source
WIII METAR 2018/12/19 03:00 UTC NOAA

WIII 190300Z VRB05KT 9999 FEW020 32/21 Q1012 NOSIG


Station Type Date Time Source
WIII Decoded METAR 2018/12/19 03:00 UTC NOAA

Jakarta / Soekarno-Hatta, Indonesia (WIII) 06-07S 106-39E 8M
Dec 18, 2018 - 10:00 PM EST / 2018.12.19 0300 UTC
Wind: Variable at 6 MPH (5 KT):0
Visibility: greater than 7 mile(s):0
Sky conditions: mostly clear
Temperature: 89 F (32 C)
Dew Point: 69 F (21 C)
Relative Humidity: 52%
Pressure (altimeter): 29.88 in. Hg (1012 hPa)
ob: WIII 190300Z VRB05KT 9999 FEW020 32/21 Q1012 NOSIG
cycle: 3

Station Type Date Time Source
WIII TAF 2018/12/18 18:35 UTC NOAA

TAF WIII 181700Z 1818/1924 26005KT 3000 BR SCT020
BECMG 1902/1904 31012KT 9999 FEW018CB SCT020
TEMPO 1908/1912 3000 -TSRA


Example: see airport list